KMKC

Charles B Wheeler Downtown Airport

Kansas City, Missouri, USA
KMKC 210520Z 2106/2206 33004KT P6SM FEW200 FM211700 35010KT P6SM FEW200 FM220000 01004KT P6SM FEW200
Issued Valid From Valid To
Jul-21 @ 05:20 UTC
(5 hours ago)
Jul-21 @ 06:00 UTC
(4 hours ago)
Jul-22 @ 06:00 UTC
(in 20 hours)
Jul-21 @ 06:00 to Jul-21 @ 17:00
KMKC 210520Z 2106/2206 33004KT P6SM FEW200
Wind Visibility Clouds
330° at 4 knots Greater than 6 miles
  • Few at 20,000' AGL
From Jul-21 @ 17:00 to Jul-22 @ 00:00
FM211700 35010KT P6SM FEW200
Wind Visibility Clouds
350° at 10 knots Greater than 6 miles
  • Few at 20,000' AGL
From Jul-22 @ 00:00 to Jul-22 @ 06:00
FM220000 01004KT P6SM FEW200
Wind Visibility Clouds
10° at 4 knots Greater than 6 miles
  • Few at 20,000' AGL
KMKC 210520Z 2106/2206 33004KT P6SM FEW200 FM211700 35010KT P6SM FEW200 FM220000 01004KT P6SM FEW200
Issued Jul-21 @ 05:20 UTC
(5 hours ago)
Valid From Jul-21 @ 06:00 UTC
(4 hours ago)
Valid To Jul-22 @ 06:00 UTC
(in 20 hours)
Jul-21 @ 06:00 - Jul-21 @ 17:00
Wind Visibility
330° at 4 knots Greater than 6 miles
Clouds
  • Few at 20,000' AGL
From Jul-21 @ 17:00 - Jul-22 @ 00:00
Wind Visibility
350° at 10 knots Greater than 6 miles
Clouds
  • Few at 20,000' AGL
From Jul-22 @ 00:00 - Jul-22 @ 06:00
Wind Visibility
10° at 4 knots Greater than 6 miles
Clouds
  • Few at 20,000' AGL